createdAt,value
2023-02-28T00:00:47.505Z,60.73
2023-02-28T00:05:49.272Z,60.93
2023-02-28T00:10:51.951Z,60.27
2023-02-28T00:16:01.947Z,60.05
2023-02-28T00:21:04.701Z,57.33
2023-02-28T00:26:06.429Z,59.94
2023-02-28T00:31:08.342Z,63.78
2023-02-28T00:36:13.001Z,63.09
2023-02-28T00:41:15.652Z,62.05
2023-02-28T00:46:18.473Z,62.34
2023-02-28T00:51:21.846Z,62.32
2023-02-28T00:56:23.598Z,63.12
2023-02-28T01:01:25.246Z,63.01
2023-02-28T01:06:27.119Z,63.17
2023-02-28T01:11:28.959Z,63.60
2023-02-28T01:16:31.157Z,63.99
2023-02-28T01:21:33.032Z,64.19
2023-02-28T01:26:34.856Z,62.50
2023-02-28T01:31:37.333Z,62.30
2023-02-28T01:36:39.212Z,61.50
2023-02-28T01:41:41.562Z,61.48
2023-02-28T01:46:43.754Z,60.95
2023-02-28T01:51:52.057Z,61.63
2023-02-28T01:56:59.950Z,61.00
2023-02-28T02:02:03.262Z,61.67
2023-02-28T02:07:05.328Z,61.70
2023-02-28T02:12:32.891Z,61.42
2023-02-28T02:17:45.536Z,61.82
2023-02-28T02:23:18.924Z,62.38
2023-02-28T02:29:03.143Z,63.17
2023-02-28T02:34:27.487Z,63.75
2023-02-28T02:39:45.624Z,63.50
2023-02-28T02:44:55.359Z,63.33
2023-02-28T02:50:05.683Z,63.97
2023-02-28T02:55:12.076Z,64.20
2023-02-28T03:00:17.788Z,64.74
2023-02-28T03:05:27.792Z,65.67
2023-02-28T03:10:40.635Z,66.34
2023-02-28T03:16:08.221Z,66.78
2023-02-28T03:21:25.318Z,67.11
2023-02-28T03:26:28.768Z,67.47
2023-02-28T03:31:45.387Z,67.48
2023-02-28T03:36:52.400Z,68.25
2023-02-28T03:42:02.023Z,69.51
2023-02-28T03:47:11.898Z,69.99
2023-02-28T03:52:13.649Z,69.92
2023-02-28T03:57:30.092Z,69.92
2023-02-28T04:02:31.975Z,70.64
2023-02-28T04:07:34.288Z,70.91
2023-02-28T04:12:36.138Z,70.78
2023-02-28T04:17:38.307Z,70.68
2023-02-28T04:22:40.148Z,70.49
2023-02-28T04:27:41.910Z,70.42
2023-02-28T04:32:43.633Z,70.21
2023-02-28T04:37:45.464Z,70.13
2023-02-28T04:42:47.236Z,69.96
2023-02-28T04:47:49.005Z,70.18
2023-02-28T04:52:50.725Z,70.35
2023-02-28T04:57:52.593Z,70.73
2023-02-28T05:06:32.191Z,70.94
2023-02-28T05:11:39.676Z,71.34
2023-02-28T05:16:41.427Z,71.02
2023-02-28T05:21:52.289Z,71.24
2023-02-28T05:26:55.355Z,71.81
2023-02-28T05:31:57.184Z,72.09
2023-02-28T05:36:59.092Z,71.90
2023-02-28T05:42:00.806Z,71.66
2023-02-28T05:47:02.516Z,71.63
2023-02-28T05:52:04.390Z,71.57
2023-02-28T05:57:12.613Z,71.49
2023-02-28T06:02:18.959Z,71.49
2023-02-28T06:07:20.727Z,71.24
2023-02-28T06:12:22.316Z,71.12
2023-02-28T06:17:24.056Z,70.97
2023-02-28T06:22:25.763Z,70.60
2023-02-28T06:27:27.683Z,70.50
2023-02-28T06:32:29.397Z,70.33
2023-02-28T06:37:34.200Z,70.18
2023-02-28T06:42:35.896Z,70.32
2023-02-28T06:47:38.621Z,69.60
2023-02-28T06:52:40.484Z,68.68
2023-02-28T06:57:42.193Z,68.54
2023-02-28T07:02:44.137Z,68.97
2023-02-28T07:07:47.983Z,68.54
2023-02-28T07:12:49.795Z,67.90
2023-02-28T07:17:51.588Z,67.63
2023-02-28T07:22:58.934Z,67.12
2023-02-28T07:28:01.340Z,66.93
2023-02-28T07:33:03.073Z,66.60
2023-02-28T07:38:05.042Z,65.99
2023-02-28T07:43:06.792Z,66.10
2023-02-28T07:48:11.117Z,63.64
2023-02-28T07:53:12.901Z,64.01
2023-02-28T07:58:14.658Z,64.91
2023-02-28T08:03:16.844Z,66.17
2023-02-28T08:08:18.536Z,65.89
2023-02-28T08:13:20.193Z,63.94
2023-02-28T08:18:23.175Z,64.74
2023-02-28T08:23:24.847Z,63.22
2023-02-28T08:28:27.580Z,62.36
2023-02-28T08:33:29.459Z,63.85
2023-02-28T08:38:31.291Z,62.67
2023-02-28T08:43:32.985Z,59.79
2023-02-28T08:48:36.081Z,61.37
2023-02-28T08:53:40.205Z,60.49
2023-02-28T08:58:42.213Z,62.23
2023-02-28T09:03:45.299Z,61.10
2023-02-28T09:08:47.413Z,60.02
2023-02-28T09:13:49.108Z,59.40
2023-02-28T09:18:51.162Z,58.80
2023-02-28T09:23:53.209Z,59.08
2023-02-28T09:28:56.016Z,57.92
2023-02-28T09:33:58.887Z,57.05
2023-02-28T09:39:00.562Z,56.65
2023-02-28T09:44:05.259Z,55.77
2023-02-28T09:49:20.448Z,56.43
2023-02-28T09:54:25.004Z,56.31
2023-02-28T09:59:55.854Z,56.24
2023-02-28T10:05:09.782Z,56.11
2023-02-28T10:10:22.543Z,56.01
2023-02-28T10:15:27.700Z,55.52
2023-02-28T10:20:34.853Z,55.62
2023-02-28T10:25:39.396Z,55.30
2023-02-28T10:30:46.338Z,51.43
2023-02-28T10:35:48.132Z,53.29
2023-02-28T10:40:50.498Z,50.88
2023-02-28T10:46:10.463Z,50.83
2023-02-28T10:51:17.453Z,50.36
2023-02-28T10:56:22.960Z,49.67
2023-02-28T11:01:40.955Z,48.97
2023-02-28T11:06:42.994Z,49.60
2023-02-28T11:11:47.935Z,47.32
2023-02-28T11:16:51.180Z,45.28
2023-02-28T11:22:00.132Z,46.00
2023-02-28T11:27:02.725Z,48.82
2023-02-28T11:32:24.187Z,47.27
2023-02-28T11:37:28.289Z,49.64
2023-02-28T11:42:40.253Z,50.89
2023-02-28T11:47:49.219Z,51.50
2023-02-28T11:52:57.162Z,49.21
2023-02-28T11:58:17.814Z,49.43
2023-02-28T12:03:29.287Z,47.98
2023-02-28T12:08:49.400Z,48.33
2023-02-28T12:14:21.812Z,49.46
2023-02-28T12:19:34.705Z,49.00
2023-02-28T12:24:58.025Z,49.74
2023-02-28T12:30:26.941Z,49.12
2023-02-28T12:35:42.048Z,49.13
2023-02-28T12:40:49.903Z,49.13
2023-02-28T12:45:57.994Z,49.73
2023-02-28T12:51:01.770Z,49.48
2023-02-28T12:56:37.491Z,48.84
2023-02-28T13:01:48.801Z,50.41
2023-02-28T13:07:09.788Z,51.13
2023-02-28T13:12:16.602Z,50.38
2023-02-28T13:17:24.794Z,49.22
2023-02-28T13:22:26.535Z,49.92
2023-02-28T13:27:40.436Z,47.56
2023-02-28T13:32:42.273Z,46.57
2023-02-28T13:37:45.797Z,46.86
2023-02-28T13:42:50.655Z,47.00
2023-02-28T13:48:03.052Z,48.96
2023-02-28T13:53:18.324Z,47.94
2023-02-28T13:58:42.099Z,49.65
2023-02-28T14:03:59.013Z,50.85
2023-02-28T14:09:09.293Z,48.71
2023-02-28T14:14:36.939Z,47.37
2023-02-28T14:19:39.862Z,49.40
2023-02-28T14:25:19.384Z,48.64
2023-02-28T14:30:39.255Z,50.00
2023-02-28T14:35:54.884Z,48.57
2023-02-28T14:41:01.636Z,48.91
2023-02-28T14:46:07.386Z,48.76
2023-02-28T14:51:10.074Z,49.22
2023-02-28T14:56:37.853Z,51.81
2023-02-28T15:01:39.737Z,49.41
2023-02-28T15:06:42.605Z,52.14
2023-02-28T15:11:49.712Z,50.47
2023-02-28T15:17:01.141Z,50.48
2023-02-28T15:22:17.906Z,51.15
2023-02-28T15:27:31.024Z,52.48
2023-02-28T15:32:38.245Z,52.00
2023-02-28T15:37:47.414Z,52.75
2023-02-28T15:43:08.592Z,53.37
2023-02-28T15:48:24.158Z,54.06
2023-02-28T15:53:41.180Z,55.02
2023-02-28T15:58:43.601Z,54.40
2023-02-28T16:03:51.146Z,54.94
2023-02-28T16:08:54.109Z,55.90
2023-02-28T16:13:56.096Z,56.41
2023-02-28T16:18:58.026Z,57.37
2023-02-28T16:23:59.919Z,58.49
2023-02-28T16:29:03.112Z,59.07
2023-02-28T16:34:06.061Z,59.20
2023-02-28T16:39:07.779Z,60.40
2023-02-28T16:44:12.813Z,61.92
2023-02-28T16:49:15.141Z,62.02
2023-02-28T16:54:17.041Z,63.65
2023-02-28T16:59:20.862Z,62.70
2023-02-28T17:04:22.554Z,61.34
2023-02-28T17:09:30.801Z,60.35
2023-02-28T17:14:39.644Z,59.90
2023-02-28T17:19:44.041Z,58.79
2023-02-28T17:24:46.467Z,59.36
2023-02-28T17:29:49.039Z,60.62
2023-02-28T17:34:50.858Z,63.32
2023-02-28T17:39:52.636Z,63.51
2023-02-28T17:44:54.329Z,63.03
2023-02-28T17:49:55.955Z,62.27
2023-02-28T17:54:58.255Z,61.96
2023-02-28T17:59:59.958Z,61.41
2023-02-28T18:05:01.694Z,61.32
2023-02-28T18:10:04.287Z,61.67
2023-02-28T18:15:07.173Z,62.14
2023-02-28T18:20:11.516Z,61.83
2023-02-28T18:25:16.920Z,61.98
2023-02-28T18:30:19.270Z,61.61
2023-02-28T18:35:36.107Z,61.40
2023-02-28T18:40:38.544Z,61.31
2023-02-28T18:45:40.259Z,62.06
2023-02-28T18:50:42.282Z,62.67
2023-02-28T18:55:44.577Z,63.07
2023-02-28T19:00:47.720Z,62.30
2023-02-28T19:05:50.941Z,63.23
2023-02-28T19:10:52.965Z,63.39
2023-02-28T19:16:01.575Z,63.45
2023-02-28T19:21:03.869Z,63.87
2023-02-28T19:26:10.456Z,63.27
2023-02-28T19:31:17.667Z,63.29
2023-02-28T19:36:20.648Z,64.16
2023-02-28T19:41:22.838Z,64.79
2023-02-28T19:46:24.616Z,65.28
2023-02-28T19:51:28.853Z,64.95
2023-02-28T19:56:30.987Z,65.09
2023-02-28T20:01:33.074Z,65.34
2023-02-28T20:06:34.988Z,65.47
2023-02-28T20:11:37.188Z,66.13
2023-02-28T20:16:40.766Z,66.04
2023-02-28T20:21:44.011Z,65.80
2023-02-28T20:26:45.738Z,65.83
2023-02-28T20:31:47.536Z,65.86
2023-02-28T20:36:49.785Z,65.53
2023-02-28T20:41:51.500Z,65.34
2023-02-28T20:46:53.169Z,65.31
2023-02-28T20:51:54.832Z,65.76
2023-02-28T20:56:56.742Z,66.83
2023-02-28T21:01:58.436Z,69.50
2023-02-28T21:07:00.197Z,70.54
2023-02-28T21:12:01.814Z,68.75
2023-02-28T21:17:03.714Z,66.30
2023-02-28T21:22:05.507Z,66.41
2023-02-28T21:27:07.337Z,66.58
2023-02-28T21:32:09.151Z,65.88
2023-02-28T21:37:11.151Z,65.74
2023-02-28T21:42:13.095Z,63.87
2023-02-28T21:47:14.892Z,63.62
2023-02-28T21:52:21.831Z,65.12
2023-02-28T21:57:23.668Z,66.23
2023-02-28T22:02:25.881Z,66.65
2023-02-28T22:07:28.167Z,67.37
2023-02-28T22:12:30.824Z,69.05
2023-02-28T22:17:33.537Z,70.01
2023-02-28T22:22:35.472Z,70.67
2023-02-28T22:27:37.292Z,71.20
2023-02-28T22:32:41.235Z,71.44
2023-02-28T22:37:44.026Z,69.97
2023-02-28T22:42:46.731Z,71.70
2023-02-28T22:47:49.438Z,72.20
2023-02-28T22:52:52.930Z,73.27
2023-02-28T22:57:54.650Z,73.75
2023-02-28T23:02:56.434Z,73.99
2023-02-28T23:07:58.302Z,73.41
2023-02-28T23:13:00.842Z,72.62
2023-02-28T23:18:02.733Z,72.39
2023-02-28T23:23:04.905Z,72.23
2023-02-28T23:28:07.386Z,72.23
2023-02-28T23:33:14.133Z,72.28
2023-02-28T23:38:15.904Z,72.38
2023-02-28T23:43:17.615Z,72.71
2023-02-28T23:48:19.571Z,73.05
2023-02-28T23:53:21.386Z,72.89
2023-02-28T23:58:23.145Z,72.66
